sensor_id;sensor_type;location;lat;lon;timestamp;P1;durP1;ratioP1;P2;durP2;ratioP2
5807;SDS011;2930;42.678;23.312;2023-04-24T00:02:05;2.33;;;2.22;;
5807;SDS011;2930;42.678;23.312;2023-04-24T00:04:31;2.08;;;1.98;;
5807;SDS011;2930;42.678;23.312;2023-04-24T00:06:57;2.58;;;2.40;;
5807;SDS011;2930;42.678;23.312;2023-04-24T00:09:25;5.10;;;3.22;;
5807;SDS011;2930;42.678;23.312;2023-04-24T00:11:51;2.17;;;2.08;;
5807;SDS011;2930;42.678;23.312;2023-04-24T00:14:17;2.33;;;2.17;;
5807;SDS011;2930;42.678;23.312;2023-04-24T00:16:43;2.40;;;2.30;;
5807;SDS011;2930;42.678;23.312;2023-04-24T00:19:09;3.10;;;2.72;;
5807;SDS011;2930;42.678;23.312;2023-04-24T00:21:36;2.30;;;2.05;;
5807;SDS011;2930;42.678;23.312;2023-04-24T00:24:02;2.17;;;2.03;;
5807;SDS011;2930;42.678;23.312;2023-04-24T00:26:28;1.92;;;1.83;;
5807;SDS011;2930;42.678;23.312;2023-04-24T00:28:54;2.72;;;2.53;;
5807;SDS011;2930;42.678;23.312;2023-04-24T00:31:19;2.05;;;1.83;;
5807;SDS011;2930;42.678;23.312;2023-04-24T00:33:45;2.30;;;2.20;;
5807;SDS011;2930;42.678;23.312;2023-04-24T00:36:11;1.70;;;1.70;;
5807;SDS011;2930;42.678;23.312;2023-04-24T00:38:37;4.20;;;2.08;;
5807;SDS011;2930;42.678;23.312;2023-04-24T00:41:02;1.45;;;1.42;;
5807;SDS011;2930;42.678;23.312;2023-04-24T00:43:28;2.90;;;1.73;;
5807;SDS011;2930;42.678;23.312;2023-04-24T00:45:54;1.70;;;1.60;;
5807;SDS011;2930;42.678;23.312;2023-04-24T00:48:20;2.13;;;1.98;;
5807;SDS011;2930;42.678;23.312;2023-04-24T00:50:46;1.75;;;1.65;;
5807;SDS011;2930;42.678;23.312;2023-04-24T00:53:11;1.75;;;1.65;;
5807;SDS011;2930;42.678;23.312;2023-04-24T00:55:37;1.52;;;1.50;;
5807;SDS011;2930;42.678;23.312;2023-04-24T00:58:03;1.77;;;1.75;;
5807;SDS011;2930;42.678;23.312;2023-04-24T01:00:30;1.60;;;1.50;;
5807;SDS011;2930;42.678;23.312;2023-04-24T01:02:56;1.95;;;1.75;;
5807;SDS011;2930;42.678;23.312;2023-04-24T01:05:24;1.52;;;1.42;;
5807;SDS011;2930;42.678;23.312;2023-04-24T01:07:50;1.70;;;1.60;;
5807;SDS011;2930;42.678;23.312;2023-04-24T01:10:16;1.83;;;1.73;;
5807;SDS011;2930;42.678;23.312;2023-04-24T01:12:42;2.25;;;1.38;;
5807;SDS011;2930;42.678;23.312;2023-04-24T01:15:08;3.58;;;1.80;;
5807;SDS011;2930;42.678;23.312;2023-04-24T01:17:34;1.15;;;1.15;;
5807;SDS011;2930;42.678;23.312;2023-04-24T01:20:01;1.75;;;1.63;;
5807;SDS011;2930;42.678;23.312;2023-04-24T01:22:29;1.73;;;1.65;;
5807;SDS011;2930;42.678;23.312;2023-04-24T01:24:55;3.03;;;1.55;;
5807;SDS011;2930;42.678;23.312;2023-04-24T01:27:20;2.13;;;1.52;;
5807;SDS011;2930;42.678;23.312;2023-04-24T01:29:46;3.13;;;2.05;;
5807;SDS011;2930;42.678;23.312;2023-04-24T01:32:14;1.63;;;1.52;;
5807;SDS011;2930;42.678;23.312;2023-04-24T01:34:40;1.48;;;1.40;;
5807;SDS011;2930;42.678;23.312;2023-04-24T01:37:06;1.35;;;1.35;;
5807;SDS011;2930;42.678;23.312;2023-04-24T01:39:32;1.88;;;1.80;;
5807;SDS011;2930;42.678;23.312;2023-04-24T01:41:58;1.30;;;1.20;;
5807;SDS011;2930;42.678;23.312;2023-04-24T01:44:25;1.23;;;1.23;;
5807;SDS011;2930;42.678;23.312;2023-04-24T01:46:51;1.60;;;1.48;;
5807;SDS011;2930;42.678;23.312;2023-04-24T01:49:18;1.35;;;1.35;;
5807;SDS011;2930;42.678;23.312;2023-04-24T01:51:44;1.13;;;1.13;;
5807;SDS011;2930;42.678;23.312;2023-04-24T01:54:10;1.30;;;1.30;;
5807;SDS011;2930;42.678;23.312;2023-04-24T01:56:36;1.10;;;1.05;;
5807;SDS011;2930;42.678;23.312;2023-04-24T01:59:08;1.23;;;1.23;;
5807;SDS011;2930;42.678;23.312;2023-04-24T02:01:37;2.05;;;1.30;;
5807;SDS011;2930;42.678;23.312;2023-04-24T02:04:04;1.50;;;1.50;;
5807;SDS011;2930;42.678;23.312;2023-04-24T02:06:31;0.98;;;0.98;;
5807;SDS011;2930;42.678;23.312;2023-04-24T02:08:58;1.52;;;1.52;;
5807;SDS011;2930;42.678;23.312;2023-04-24T02:11:24;1.40;;;1.40;;
5807;SDS011;2930;42.678;23.312;2023-04-24T02:13:50;1.40;;;1.40;;
5807;SDS011;2930;42.678;23.312;2023-04-24T02:16:16;1.52;;;1.52;;
5807;SDS011;2930;42.678;23.312;2023-04-24T02:18:42;1.42;;;1.42;;
5807;SDS011;2930;42.678;23.312;2023-04-24T02:21:09;1.50;;;1.42;;
5807;SDS011;2930;42.678;23.312;2023-04-24T02:23:34;2.35;;;1.35;;
5807;SDS011;2930;42.678;23.312;2023-04-24T02:26:00;3.00;;;1.30;;
5807;SDS011;2930;42.678;23.312;2023-04-24T02:28:26;1.63;;;1.52;;
5807;SDS011;2930;42.678;23.312;2023-04-24T02:30:52;1.08;;;1.08;;
5807;SDS011;2930;42.678;23.312;2023-04-24T02:33:17;1.20;;;1.20;;
5807;SDS011;2930;42.678;23.312;2023-04-24T02:35:43;1.77;;;1.77;;
5807;SDS011;2930;42.678;23.312;2023-04-24T02:38:09;6.53;;;1.70;;
5807;SDS011;2930;42.678;23.312;2023-04-24T02:40:34;2.20;;;1.52;;
5807;SDS011;2930;42.678;23.312;2023-04-24T02:43:00;1.38;;;1.38;;
5807;SDS011;2930;42.678;23.312;2023-04-24T02:45:25;3.35;;;1.67;;
5807;SDS011;2930;42.678;23.312;2023-04-24T02:47:51;1.50;;;1.40;;
5807;SDS011;2930;42.678;23.312;2023-04-24T02:50:17;1.33;;;1.33;;
5807;SDS011;2930;42.678;23.312;2023-04-24T02:52:42;1.23;;;1.23;;
5807;SDS011;2930;42.678;23.312;2023-04-24T02:55:08;1.63;;;1.63;;
5807;SDS011;2930;42.678;23.312;2023-04-24T02:57:34;1.47;;;1.47;;
5807;SDS011;2930;42.678;23.312;2023-04-24T03:00:00;1.45;;;1.30;;
5807;SDS011;2930;42.678;23.312;2023-04-24T03:02:26;1.85;;;1.75;;
5807;SDS011;2930;42.678;23.312;2023-04-24T03:04:51;1.70;;;1.25;;
5807;SDS011;2930;42.678;23.312;2023-04-24T03:07:17;1.65;;;1.55;;
5807;SDS011;2930;42.678;23.312;2023-04-24T03:09:45;1.08;;;1.08;;
5807;SDS011;2930;42.678;23.312;2023-04-24T03:12:12;1.52;;;1.52;;
5807;SDS011;2930;42.678;23.312;2023-04-24T03:14:38;4.57;;;1.83;;
5807;SDS011;2930;42.678;23.312;2023-04-24T03:17:03;1.70;;;1.60;;
5807;SDS011;2930;42.678;23.312;2023-04-24T03:19:29;1.60;;;1.60;;
5807;SDS011;2930;42.678;23.312;2023-04-24T03:21:55;1.75;;;1.35;;
5807;SDS011;2930;42.678;23.312;2023-04-24T03:24:21;2.83;;;1.73;;
5807;SDS011;2930;42.678;23.312;2023-04-24T03:26:47;2.13;;;2.03;;
5807;SDS011;2930;42.678;23.312;2023-04-24T03:29:13;1.63;;;1.63;;
5807;SDS011;2930;42.678;23.312;2023-04-24T03:31:38;2.42;;;1.63;;
5807;SDS011;2930;42.678;23.312;2023-04-24T03:34:04;1.30;;;1.30;;
5807;SDS011;2930;42.678;23.312;2023-04-24T03:36:30;1.93;;;1.83;;
5807;SDS011;2930;42.678;23.312;2023-04-24T03:38:56;3.23;;;1.37;;
5807;SDS011;2930;42.678;23.312;2023-04-24T03:41:22;3.50;;;2.10;;
5807;SDS011;2930;42.678;23.312;2023-04-24T03:43:47;2.03;;;1.92;;
5807;SDS011;2930;42.678;23.312;2023-04-24T03:46:13;3.45;;;2.22;;
5807;SDS011;2930;42.678;23.312;2023-04-24T03:48:40;2.37;;;2.17;;
5807;SDS011;2930;42.678;23.312;2023-04-24T03:51:05;4.00;;;1.95;;
5807;SDS011;2930;42.678;23.312;2023-04-24T03:53:31;1.70;;;1.60;;
5807;SDS011;2930;42.678;23.312;2023-04-24T03:55:57;1.93;;;1.67;;
5807;SDS011;2930;42.678;23.312;2023-04-24T03:58:22;2.30;;;2.20;;
5807;SDS011;2930;42.678;23.312;2023-04-24T04:00:48;2.57;;;2.40;;
5807;SDS011;2930;42.678;23.312;2023-04-24T04:03:14;1.67;;;1.58;;
5807;SDS011;2930;42.678;23.312;2023-04-24T04:05:40;1.53;;;1.53;;
5807;SDS011;2930;42.678;23.312;2023-04-24T04:08:06;3.07;;;2.00;;
5807;SDS011;2930;42.678;23.312;2023-04-24T04:10:31;2.70;;;2.57;;
5807;SDS011;2930;42.678;23.312;2023-04-24T04:12:57;2.80;;;2.13;;
5807;SDS011;2930;42.678;23.312;2023-04-24T04:15:23;2.40;;;2.20;;
5807;SDS011;2930;42.678;23.312;2023-04-24T04:17:48;3.27;;;2.23;;
5807;SDS011;2930;42.678;23.312;2023-04-24T04:20:14;2.07;;;1.90;;
5807;SDS011;2930;42.678;23.312;2023-04-24T04:22:40;3.93;;;2.40;;
5807;SDS011;2930;42.678;23.312;2023-04-24T04:25:05;4.07;;;2.53;;
5807;SDS011;2930;42.678;23.312;2023-04-24T04:27:31;2.17;;;1.60;;
5807;SDS011;2930;42.678;23.312;2023-04-24T04:30:00;2.35;;;2.15;;
5807;SDS011;2930;42.678;23.312;2023-04-24T04:32:29;2.17;;;2.07;;
5807;SDS011;2930;42.678;23.312;2023-04-24T04:34:59;3.53;;;1.97;;
5807;SDS011;2930;42.678;23.312;2023-04-24T04:37:31;1.98;;;1.88;;
5807;SDS011;2930;42.678;23.312;2023-04-24T04:39:58;1.97;;;1.87;;
5807;SDS011;2930;42.678;23.312;2023-04-24T04:42:24;3.35;;;2.33;;
5807;SDS011;2930;42.678;23.312;2023-04-24T04:44:53;1.67;;;1.67;;
5807;SDS011;2930;42.678;23.312;2023-04-24T04:47:20;1.13;;;1.10;;
5807;SDS011;2930;42.678;23.312;2023-04-24T04:49:49;3.15;;;1.42;;
5807;SDS011;2930;42.678;23.312;2023-04-24T04:52:18;1.45;;;1.13;;
5807;SDS011;2930;42.678;23.312;2023-04-24T04:54:44;1.50;;;1.50;;
5807;SDS011;2930;42.678;23.312;2023-04-24T04:57:11;4.40;;;1.00;;
5807;SDS011;2930;42.678;23.312;2023-04-24T04:59:37;0.98;;;0.98;;
5807;SDS011;2930;42.678;23.312;2023-04-24T05:02:03;2.33;;;1.10;;
5807;SDS011;2930;42.678;23.312;2023-04-24T05:04:29;2.67;;;0.98;;
5807;SDS011;2930;42.678;23.312;2023-04-24T05:06:55;1.73;;;1.55;;
5807;SDS011;2930;42.678;23.312;2023-04-24T05:09:21;1.63;;;1.35;;
5807;SDS011;2930;42.678;23.312;2023-04-24T05:11:47;1.00;;;0.90;;
5807;SDS011;2930;42.678;23.312;2023-04-24T05:14:12;1.30;;;1.30;;
5807;SDS011;2930;42.678;23.312;2023-04-24T05:16:38;1.15;;;1.15;;
5807;SDS011;2930;42.678;23.312;2023-04-24T05:19:05;1.23;;;1.20;;
5807;SDS011;2930;42.678;23.312;2023-04-24T05:21:31;1.23;;;1.17;;
5807;SDS011;2930;42.678;23.312;2023-04-24T05:23:56;1.65;;;1.55;;
5807;SDS011;2930;42.678;23.312;2023-04-24T05:26:22;1.35;;;1.25;;
5807;SDS011;2930;42.678;23.312;2023-04-24T05:28:48;1.60;;;1.25;;
5807;SDS011;2930;42.678;23.312;2023-04-24T05:31:14;1.42;;;1.42;;
5807;SDS011;2930;42.678;23.312;2023-04-24T05:33:40;2.42;;;2.05;;
5807;SDS011;2930;42.678;23.312;2023-04-24T05:36:06;2.17;;;2.05;;
5807;SDS011;2930;42.678;23.312;2023-04-24T05:38:32;1.40;;;1.40;;
5807;SDS011;2930;42.678;23.312;2023-04-24T05:40:58;1.52;;;1.52;;
5807;SDS011;2930;42.678;23.312;2023-04-24T05:43:23;1.90;;;1.80;;
5807;SDS011;2930;42.678;23.312;2023-04-24T05:45:50;1.95;;;1.60;;
5807;SDS011;2930;42.678;23.312;2023-04-24T05:48:15;1.77;;;1.67;;
5807;SDS011;2930;42.678;23.312;2023-04-24T05:50:41;2.08;;;1.98;;
5807;SDS011;2930;42.678;23.312;2023-04-24T05:53:07;3.63;;;2.10;;
5807;SDS011;2930;42.678;23.312;2023-04-24T05:55:34;2.05;;;1.85;;
5807;SDS011;2930;42.678;23.312;2023-04-24T05:58:00;1.92;;;1.83;;
5807;SDS011;2930;42.678;23.312;2023-04-24T06:00:26;2.28;;;2.17;;
5807;SDS011;2930;42.678;23.312;2023-04-24T06:02:52;2.10;;;1.90;;
5807;SDS011;2930;42.678;23.312;2023-04-24T06:05:17;2.55;;;2.45;;
5807;SDS011;2930;42.678;23.312;2023-04-24T06:07:43;4.57;;;2.60;;
5807;SDS011;2930;42.678;23.312;2023-04-24T06:10:09;1.88;;;1.88;;
5807;SDS011;2930;42.678;23.312;2023-04-24T06:12:35;2.58;;;2.40;;
5807;SDS011;2930;42.678;23.312;2023-04-24T06:15:01;3.17;;;2.40;;
5807;SDS011;2930;42.678;23.312;2023-04-24T06:17:28;4.10;;;2.67;;
5807;SDS011;2930;42.678;23.312;2023-04-24T06:19:54;2.85;;;2.60;;
5807;SDS011;2930;42.678;23.312;2023-04-24T06:22:20;2.40;;;2.25;;
5807;SDS011;2930;42.678;23.312;2023-04-24T06:24:45;6.20;;;2.67;;
5807;SDS011;2930;42.678;23.312;2023-04-24T06:27:13;5.38;;;2.90;;
5807;SDS011;2930;42.678;23.312;2023-04-24T06:29:39;5.18;;;2.92;;
5807;SDS011;2930;42.678;23.312;2023-04-24T06:32:04;3.15;;;2.95;;
5807;SDS011;2930;42.678;23.312;2023-04-24T06:34:30;2.58;;;2.38;;
5807;SDS011;2930;42.678;23.312;2023-04-24T06:36:57;3.97;;;2.63;;
5807;SDS011;2930;42.678;23.312;2023-04-24T06:39:23;2.85;;;2.75;;
5807;SDS011;2930;42.678;23.312;2023-04-24T06:41:49;2.92;;;2.72;;
5807;SDS011;2930;42.678;23.312;2023-04-24T06:44:15;3.50;;;3.30;;
5807;SDS011;2930;42.678;23.312;2023-04-24T06:46:41;3.38;;;3.08;;
5807;SDS011;2930;42.678;23.312;2023-04-24T06:49:07;8.50;;;3.17;;
5807;SDS011;2930;42.678;23.312;2023-04-24T06:51:33;2.95;;;2.75;;
5807;SDS011;2930;42.678;23.312;2023-04-24T06:53:59;6.25;;;2.95;;
5807;SDS011;2930;42.678;23.312;2023-04-24T06:56:25;5.65;;;3.00;;
5807;SDS011;2930;42.678;23.312;2023-04-24T06:58:51;5.25;;;3.20;;
5807;SDS011;2930;42.678;23.312;2023-04-24T07:01:18;7.28;;;3.30;;
5807;SDS011;2930;42.678;23.312;2023-04-24T07:03:44;3.17;;;2.88;;
5807;SDS011;2930;42.678;23.312;2023-04-24T07:06:09;3.85;;;3.58;;
5807;SDS011;2930;42.678;23.312;2023-04-24T07:08:36;3.65;;;3.35;;
5807;SDS011;2930;42.678;23.312;2023-04-24T07:11:02;4.53;;;2.97;;
5807;SDS011;2930;42.678;23.312;2023-04-24T07:13:27;3.38;;;3.17;;
5807;SDS011;2930;42.678;23.312;2023-04-24T07:15:53;10.65;;;3.53;;
5807;SDS011;2930;42.678;23.312;2023-04-24T07:18:22;2.90;;;2.60;;
5807;SDS011;2930;42.678;23.312;2023-04-24T07:20:48;3.67;;;3.17;;
5807;SDS011;2930;42.678;23.312;2023-04-24T07:23:17;3.53;;;3.22;;
5807;SDS011;2930;42.678;23.312;2023-04-24T07:25:44;2.92;;;2.72;;
5807;SDS011;2930;42.678;23.312;2023-04-24T07:28:09;2.72;;;2.63;;
5807;SDS011;2930;42.678;23.312;2023-04-24T07:30:35;2.85;;;2.75;;
5807;SDS011;2930;42.678;23.312;2023-04-24T07:33:01;3.00;;;2.80;;
5807;SDS011;2930;42.678;23.312;2023-04-24T07:35:26;2.80;;;2.65;;
5807;SDS011;2930;42.678;23.312;2023-04-24T07:37:52;2.88;;;2.78;;
5807;SDS011;2930;42.678;23.312;2023-04-24T07:40:19;3.03;;;2.83;;
5807;SDS011;2930;42.678;23.312;2023-04-24T07:42:45;4.28;;;2.88;;
5807;SDS011;2930;42.678;23.312;2023-04-24T07:45:13;3.30;;;3.03;;
5807;SDS011;2930;42.678;23.312;2023-04-24T07:47:39;2.45;;;2.35;;
5807;SDS011;2930;42.678;23.312;2023-04-24T07:50:08;3.70;;;2.35;;
5807;SDS011;2930;42.678;23.312;2023-04-24T07:52:34;2.65;;;2.45;;
5807;SDS011;2930;42.678;23.312;2023-04-24T07:55:00;2.47;;;2.25;;
5807;SDS011;2930;42.678;23.312;2023-04-24T07:57:27;3.08;;;2.50;;
5807;SDS011;2930;42.678;23.312;2023-04-24T07:59:53;5.28;;;2.33;;
5807;SDS011;2930;42.678;23.312;2023-04-24T08:02:18;2.30;;;2.20;;
5807;SDS011;2930;42.678;23.312;2023-04-24T08:04:44;2.28;;;2.22;;
5807;SDS011;2930;42.678;23.312;2023-04-24T08:07:10;5.10;;;2.63;;
5807;SDS011;2930;42.678;23.312;2023-04-24T08:09:37;2.83;;;2.65;;
5807;SDS011;2930;42.678;23.312;2023-04-24T08:12:03;2.30;;;2.20;;
5807;SDS011;2930;42.678;23.312;2023-04-24T08:14:29;2.22;;;2.13;;
5807;SDS011;2930;42.678;23.312;2023-04-24T08:16:55;3.67;;;2.08;;
5807;SDS011;2930;42.678;23.312;2023-04-24T08:19:21;5.85;;;2.60;;
5807;SDS011;2930;42.678;23.312;2023-04-24T08:21:47;2.25;;;2.15;;
5807;SDS011;2930;42.678;23.312;2023-04-24T08:24:13;2.72;;;2.55;;
5807;SDS011;2930;42.678;23.312;2023-04-24T08:26:39;2.90;;;2.70;;
5807;SDS011;2930;42.678;23.312;2023-04-24T08:29:04;2.58;;;2.47;;
5807;SDS011;2930;42.678;23.312;2023-04-24T08:31:31;2.50;;;2.40;;
5807;SDS011;2930;42.678;23.312;2023-04-24T08:33:57;4.07;;;2.88;;
5807;SDS011;2930;42.678;23.312;2023-04-24T08:36:24;4.07;;;2.90;;
5807;SDS011;2930;42.678;23.312;2023-04-24T08:38:51;2.90;;;2.72;;
5807;SDS011;2930;42.678;23.312;2023-04-24T08:41:16;2.88;;;2.67;;
5807;SDS011;2930;42.678;23.312;2023-04-24T08:43:43;3.38;;;2.70;;
5807;SDS011;2930;42.678;23.312;2023-04-24T08:46:11;3.60;;;2.35;;
5807;SDS011;2930;42.678;23.312;2023-04-24T08:48:38;2.97;;;2.42;;
5807;SDS011;2930;42.678;23.312;2023-04-24T08:51:08;2.83;;;2.25;;
5807;SDS011;2930;42.678;23.312;2023-04-24T08:53:34;2.92;;;2.78;;
5807;SDS011;2930;42.678;23.312;2023-04-24T08:56:01;2.90;;;2.70;;
5807;SDS011;2930;42.678;23.312;2023-04-24T08:58:27;2.58;;;2.47;;
5807;SDS011;2930;42.678;23.312;2023-04-24T09:00:57;2.65;;;2.55;;
5807;SDS011;2930;42.678;23.312;2023-04-24T09:03:23;2.13;;;2.03;;
5807;SDS011;2930;42.678;23.312;2023-04-24T09:05:49;2.65;;;2.53;;
5807;SDS011;2930;42.678;23.312;2023-04-24T09:08:19;2.55;;;2.45;;
5807;SDS011;2930;42.678;23.312;2023-04-24T09:10:46;2.80;;;2.70;;
5807;SDS011;2930;42.678;23.312;2023-04-24T09:13:11;3.22;;;2.92;;
5807;SDS011;2930;42.678;23.312;2023-04-24T09:15:38;4.47;;;2.80;;
5807;SDS011;2930;42.678;23.312;2023-04-24T09:18:05;3.38;;;3.08;;
5807;SDS011;2930;42.678;23.312;2023-04-24T09:20:31;2.97;;;2.50;;
5807;SDS011;2930;42.678;23.312;2023-04-24T09:22:57;3.05;;;2.47;;
5807;SDS011;2930;42.678;23.312;2023-04-24T09:25:25;2.03;;;2.03;;
5807;SDS011;2930;42.678;23.312;2023-04-24T09:28:01;3.17;;;2.28;;
5807;SDS011;2930;42.678;23.312;2023-04-24T09:30:28;2.25;;;2.20;;
5807;SDS011;2930;42.678;23.312;2023-04-24T09:33:13;3.05;;;2.67;;
5807;SDS011;2930;42.678;23.312;2023-04-24T09:35:50;3.60;;;2.22;;
5807;SDS011;2930;42.678;23.312;2023-04-24T09:38:16;4.40;;;2.28;;
5807;SDS011;2930;42.678;23.312;2023-04-24T09:40:42;2.53;;;2.22;;
5807;SDS011;2930;42.678;23.312;2023-04-24T09:43:11;2.10;;;1.90;;
5807;SDS011;2930;42.678;23.312;2023-04-24T09:45:38;2.55;;;2.35;;
5807;SDS011;2930;42.678;23.312;2023-04-24T09:48:04;2.00;;;2.00;;
5807;SDS011;2930;42.678;23.312;2023-04-24T09:50:33;2.67;;;2.28;;
5807;SDS011;2930;42.678;23.312;2023-04-24T09:53:03;2.67;;;2.53;;
5807;SDS011;2930;42.678;23.312;2023-04-24T09:55:30;3.70;;;2.28;;
5807;SDS011;2930;42.678;23.312;2023-04-24T09:58:00;2.50;;;2.40;;
5807;SDS011;2930;42.678;23.312;2023-04-24T10:00:30;6.30;;;2.47;;
5807;SDS011;2930;42.678;23.312;2023-04-24T10:02:58;4.13;;;2.20;;
5807;SDS011;2930;42.678;23.312;2023-04-24T10:05:34;2.38;;;2.17;;
5807;SDS011;2930;42.678;23.312;2023-04-24T10:10:31;2.58;;;2.38;;
5807;SDS011;2930;42.678;23.312;2023-04-24T10:12:59;1.98;;;1.90;;
5807;SDS011;2930;42.678;23.312;2023-04-24T10:15:26;2.13;;;1.92;;
5807;SDS011;2930;42.678;23.312;2023-04-24T10:17:52;2.42;;;2.33;;
5807;SDS011;2930;42.678;23.312;2023-04-24T10:20:21;2.08;;;1.83;;
5807;SDS011;2930;42.678;23.312;2023-04-24T10:22:50;1.63;;;1.63;;
5807;SDS011;2930;42.678;23.312;2023-04-24T10:25:18;2.42;;;2.22;;
5807;SDS011;2930;42.678;23.312;2023-04-24T10:27:45;2.38;;;2.28;;
5807;SDS011;2930;42.678;23.312;2023-04-24T10:30:12;2.25;;;2.15;;
5807;SDS011;2930;42.678;23.312;2023-04-24T10:32:38;2.20;;;2.20;;
5807;SDS011;2930;42.678;23.312;2023-04-24T10:35:05;2.30;;;2.30;;
5807;SDS011;2930;42.678;23.312;2023-04-24T10:37:43;4.10;;;1.90;;
5807;SDS011;2930;42.678;23.312;2023-04-24T10:40:11;2.05;;;1.95;;
5807;SDS011;2930;42.678;23.312;2023-04-24T10:42:41;2.38;;;2.17;;
5807;SDS011;2930;42.678;23.312;2023-04-24T10:45:16;2.55;;;2.28;;
5807;SDS011;2930;42.678;23.312;2023-04-24T10:47:50;1.98;;;1.88;;
5807;SDS011;2930;42.678;23.312;2023-04-24T10:50:45;2.25;;;2.15;;
5807;SDS011;2930;42.678;23.312;2023-04-24T10:53:19;1.92;;;1.92;;
5807;SDS011;2930;42.678;23.312;2023-04-24T10:55:48;2.10;;;2.00;;
5807;SDS011;2930;42.678;23.312;2023-04-24T10:58:24;2.10;;;2.00;;
5807;SDS011;2930;42.678;23.312;2023-04-24T11:01:00;2.13;;;2.03;;
5807;SDS011;2930;42.678;23.312;2023-04-24T11:03:29;2.20;;;2.20;;
5807;SDS011;2930;42.678;23.312;2023-04-24T11:08:42;3.00;;;2.10;;
5807;SDS011;2930;42.678;23.312;2023-04-24T11:11:14;4.45;;;2.03;;
5807;SDS011;2930;42.678;23.312;2023-04-24T11:18:52;2.00;;;2.00;;
5807;SDS011;2930;42.678;23.312;2023-04-24T11:21:25;3.00;;;2.60;;
5807;SDS011;2930;42.678;23.312;2023-04-24T11:23:56;2.38;;;1.55;;
5807;SDS011;2930;42.678;23.312;2023-04-24T11:26:22;1.45;;;1.45;;
5807;SDS011;2930;42.678;23.312;2023-04-24T11:28:55;1.70;;;1.70;;
5807;SDS011;2930;42.678;23.312;2023-04-24T11:31:34;1.23;;;1.23;;
5807;SDS011;2930;42.678;23.312;2023-04-24T11:34:06;1.10;;;1.10;;
5807;SDS011;2930;42.678;23.312;2023-04-24T11:36:33;1.45;;;1.35;;
5807;SDS011;2930;42.678;23.312;2023-04-24T11:39:00;1.67;;;1.58;;
5807;SDS011;2930;42.678;23.312;2023-04-24T11:41:26;1.30;;;1.13;;
5807;SDS011;2930;42.678;23.312;2023-04-24T11:43:53;1.17;;;1.17;;
5807;SDS011;2930;42.678;23.312;2023-04-24T11:46:20;1.25;;;1.25;;
5807;SDS011;2930;42.678;23.312;2023-04-24T11:48:47;1.15;;;1.15;;
5807;SDS011;2930;42.678;23.312;2023-04-24T11:51:13;1.55;;;1.45;;
5807;SDS011;2930;42.678;23.312;2023-04-24T11:53:39;1.15;;;1.15;;
5807;SDS011;2930;42.678;23.312;2023-04-24T11:56:08;1.25;;;1.25;;
5807;SDS011;2930;42.678;23.312;2023-04-24T11:58:37;1.42;;;1.40;;
5807;SDS011;2930;42.678;23.312;2023-04-24T12:01:04;1.27;;;1.27;;
5807;SDS011;2930;42.678;23.312;2023-04-24T12:03:30;1.27;;;1.27;;
5807;SDS011;2930;42.678;23.312;2023-04-24T12:06:09;4.85;;;1.60;;
5807;SDS011;2930;42.678;23.312;2023-04-24T12:08:36;2.05;;;2.05;;
5807;SDS011;2930;42.678;23.312;2023-04-24T12:11:02;1.42;;;1.42;;
5807;SDS011;2930;42.678;23.312;2023-04-24T12:13:30;1.67;;;1.58;;
5807;SDS011;2930;42.678;23.312;2023-04-24T12:15:58;1.20;;;1.20;;
5807;SDS011;2930;42.678;23.312;2023-04-24T12:18:26;1.48;;;1.35;;
5807;SDS011;2930;42.678;23.312;2023-04-24T12:20:51;5.32;;;1.55;;
5807;SDS011;2930;42.678;23.312;2023-04-24T12:23:32;1.33;;;1.33;;
5807;SDS011;2930;42.678;23.312;2023-04-24T12:26:00;1.52;;;1.52;;
5807;SDS011;2930;42.678;23.312;2023-04-24T12:28:36;2.28;;;1.70;;
5807;SDS011;2930;42.678;23.312;2023-04-24T12:31:03;1.45;;;1.45;;
5807;SDS011;2930;42.678;23.312;2023-04-24T12:33:32;1.05;;;1.05;;
5807;SDS011;2930;42.678;23.312;2023-04-24T12:35:59;1.63;;;1.48;;
5807;SDS011;2930;42.678;23.312;2023-04-24T12:38:26;1.33;;;1.33;;
5807;SDS011;2930;42.678;23.312;2023-04-24T12:43:33;1.55;;;1.55;;
5807;SDS011;2930;42.678;23.312;2023-04-24T12:46:00;1.42;;;1.42;;
5807;SDS011;2930;42.678;23.312;2023-04-24T12:48:26;1.13;;;1.13;;
5807;SDS011;2930;42.678;23.312;2023-04-24T12:50:52;1.40;;;1.30;;
5807;SDS011;2930;42.678;23.312;2023-04-24T12:53:18;1.30;;;1.30;;
5807;SDS011;2930;42.678;23.312;2023-04-24T12:55:44;1.30;;;1.30;;
5807;SDS011;2930;42.678;23.312;2023-04-24T12:58:12;1.58;;;1.55;;
5807;SDS011;2930;42.678;23.312;2023-04-24T13:00:38;2.47;;;1.45;;
5807;SDS011;2930;42.678;23.312;2023-04-24T13:03:04;2.80;;;1.48;;
5807;SDS011;2930;42.678;23.312;2023-04-24T13:05:30;1.67;;;1.13;;
5807;SDS011;2930;42.678;23.312;2023-04-24T13:07:56;3.53;;;1.63;;
5807;SDS011;2930;42.678;23.312;2023-04-24T13:10:22;1.52;;;1.52;;
5807;SDS011;2930;42.678;23.312;2023-04-24T13:12:48;1.40;;;1.40;;
5807;SDS011;2930;42.678;23.312;2023-04-24T13:15:14;2.00;;;1.65;;
5807;SDS011;2930;42.678;23.312;2023-04-24T13:17:40;3.33;;;1.33;;
5807;SDS011;2930;42.678;23.312;2023-04-24T13:20:06;1.65;;;1.65;;
5807;SDS011;2930;42.678;23.312;2023-04-24T13:22:32;1.20;;;1.20;;
5807;SDS011;2930;42.678;23.312;2023-04-24T13:24:57;2.05;;;1.52;;
5807;SDS011;2930;42.678;23.312;2023-04-24T13:27:23;3.15;;;1.40;;
5807;SDS011;2930;42.678;23.312;2023-04-24T13:29:49;3.35;;;1.77;;
5807;SDS011;2930;42.678;23.312;2023-04-24T13:32:14;1.90;;;1.80;;
5807;SDS011;2930;42.678;23.312;2023-04-24T13:34:42;2.25;;;1.45;;
5807;SDS011;2930;42.678;23.312;2023-04-24T13:37:08;1.20;;;1.20;;
5807;SDS011;2930;42.678;23.312;2023-04-24T13:39:33;1.65;;;1.65;;
5807;SDS011;2930;42.678;23.312;2023-04-24T13:42:00;1.95;;;1.60;;
5807;SDS011;2930;42.678;23.312;2023-04-24T13:44:25;1.50;;;1.50;;
5807;SDS011;2930;42.678;23.312;2023-04-24T13:46:53;1.75;;;1.65;;
5807;SDS011;2930;42.678;23.312;2023-04-24T13:49:21;1.50;;;1.50;;
5807;SDS011;2930;42.678;23.312;2023-04-24T13:51:50;3.85;;;1.83;;
5807;SDS011;2930;42.678;23.312;2023-04-24T13:54:16;1.88;;;1.88;;
5807;SDS011;2930;42.678;23.312;2023-04-24T13:56:41;4.82;;;1.80;;
5807;SDS011;2930;42.678;23.312;2023-04-24T13:59:07;1.63;;;1.63;;
5807;SDS011;2930;42.678;23.312;2023-04-24T14:01:34;1.85;;;1.85;;
5807;SDS011;2930;42.678;23.312;2023-04-24T14:04:00;1.95;;;1.95;;
5807;SDS011;2930;42.678;23.312;2023-04-24T14:06:25;1.88;;;1.83;;
5807;SDS011;2930;42.678;23.312;2023-04-24T14:08:51;1.80;;;1.70;;
5807;SDS011;2930;42.678;23.312;2023-04-24T14:11:18;1.85;;;1.75;;
5807;SDS011;2930;42.678;23.312;2023-04-24T14:13:44;1.90;;;1.90;;
5807;SDS011;2930;42.678;23.312;2023-04-24T14:16:10;1.80;;;1.70;;
5807;SDS011;2930;42.678;23.312;2023-04-24T14:18:36;2.10;;;1.90;;
5807;SDS011;2930;42.678;23.312;2023-04-24T14:21:03;1.25;;;1.25;;
5807;SDS011;2930;42.678;23.312;2023-04-24T14:23:29;1.30;;;1.20;;
5807;SDS011;2930;42.678;23.312;2023-04-24T14:25:55;1.70;;;1.58;;
5807;SDS011;2930;42.678;23.312;2023-04-24T14:28:21;3.80;;;1.70;;
5807;SDS011;2930;42.678;23.312;2023-04-24T14:30:47;1.98;;;1.92;;
5807;SDS011;2930;42.678;23.312;2023-04-24T14:33:13;1.50;;;1.50;;
5807;SDS011;2930;42.678;23.312;2023-04-24T14:35:39;2.20;;;2.10;;
5807;SDS011;2930;42.678;23.312;2023-04-24T14:38:07;2.78;;;1.83;;
5807;SDS011;2930;42.678;23.312;2023-04-24T14:40:32;1.52;;;1.52;;
5807;SDS011;2930;42.678;23.312;2023-04-24T14:42:58;1.48;;;1.38;;
5807;SDS011;2930;42.678;23.312;2023-04-24T14:45:24;1.42;;;1.42;;
5807;SDS011;2930;42.678;23.312;2023-04-24T14:47:50;1.02;;;1.02;;
5807;SDS011;2930;42.678;23.312;2023-04-24T14:50:16;0.98;;;0.98;;
5807;SDS011;2930;42.678;23.312;2023-04-24T14:52:42;1.50;;;1.27;;
5807;SDS011;2930;42.678;23.312;2023-04-24T14:55:07;1.25;;;1.25;;
5807;SDS011;2930;42.678;23.312;2023-04-24T14:57:33;2.60;;;1.33;;
5807;SDS011;2930;42.678;23.312;2023-04-24T15:00:00;2.90;;;1.52;;
5807;SDS011;2930;42.678;23.312;2023-04-24T15:02:28;1.30;;;1.30;;
5807;SDS011;2930;42.678;23.312;2023-04-24T15:04:54;1.52;;;1.42;;
5807;SDS011;2930;42.678;23.312;2023-04-24T15:07:19;1.30;;;1.30;;
5807;SDS011;2930;42.678;23.312;2023-04-24T15:09:45;1.38;;;1.38;;
5807;SDS011;2930;42.678;23.312;2023-04-24T15:12:12;1.42;;;1.42;;